Time;durP1;ratioP1;P1;durP2;ratioP2;P2;SDS_P1;SDS_P2;PMS_P1;PMS_P2;Temp;Humidity;BMP_temperature;BMP_pressure;BME280_temperature;BME280_humidity;BME280_pressure;Samples;Min_cycle;Max_cycle;Signal;HPM_P1;HPM_P2
2022/04/01 00:00:44;;;;;;;;;;;11.70;90.50;;;;;;4978296;28;19966;-61
2022/04/01 00:03:10;;;;;;;;;;;11.70;90.50;;;;;;4976530;28;20036;-61
2022/04/01 00:05:38;;;;;;;;;;;11.70;90.70;;;;;;4977755;28;19914;-61
2022/04/01 00:08:04;;;;;;;;;;;11.60;90.70;;;;;;4977403;28;20421;-61
2022/04/01 00:10:29;;;;;;;;;;;11.70;90.70;;;;;;4977840;28;19914;-61
2022/04/01 00:12:55;;;;;;;;;;;11.70;90.60;;;;;;4977642;28;20398;-62
2022/04/01 00:15:20;;;;;;;;;;;11.70;90.50;;;;;;4977891;28;19917;-61
2022/04/01 00:17:46;;;;;;;;;;;11.60;90.60;;;;;;4977802;28;20278;-61
2022/04/01 00:20:18;;;;;;;;;;;11.70;90.70;;;;;;4977694;28;20392;-61
2022/04/01 00:22:44;;;;;;;;;;;11.70;90.60;;;;;;4977725;28;19933;-63
2022/04/01 00:25:09;;;;;;;;;;;11.70;90.60;;;;;;4977643;28;20358;-61
2022/04/01 00:27:35;;;;;;;;;;;11.70;90.80;;;;;;4977742;28;19917;-61
2022/04/01 00:30:01;;;;;;;;;;;11.70;90.70;;;;;;4977288;28;20005;-61
2022/04/01 00:32:28;;;;;;;;;;;11.70;90.50;;;;;;4977403;28;20008;-61
2022/04/01 00:34:53;;;;;;;;;;;11.60;90.70;;;;;;4977498;28;19918;-61
2022/04/01 00:37:19;;;;;;;;;;;11.60;90.60;;;;;;4977459;28;19922;-60
2022/04/01 00:39:44;;;;;;;;;;;11.70;90.60;;;;;;4977282;28;19966;-61
2022/04/01 00:42:11;;;;;;;;;;;11.60;90.10;;;;;;4977356;28;20334;-63
2022/04/01 00:44:37;;;;;;;;;;;11.60;90.00;;;;;;4977562;28;20335;-61
2022/04/01 00:47:04;;;;;;;;;;;11.70;89.90;;;;;;4977278;28;19910;-61
2022/04/01 00:49:31;;;;;;;;;;;11.70;89.90;;;;;;4977155;28;19911;-61
2022/04/01 00:51:57;;;;;;;;;;;11.60;89.90;;;;;;4987601;28;19989;-61
2022/04/01 00:54:23;;;;;;;;;;;11.60;90.30;;;;;;4985070;28;20243;-62
2022/04/01 00:56:49;;;;;;;;;;;11.60;90.10;;;;;;4977447;28;19989;-61
2022/04/01 00:59:15;;;;;;;;;;;11.60;90.30;;;;;;4977647;28;19919;-60
2022/04/01 01:01:43;;;;;;;;;;;11.50;90.30;;;;;;4977754;28;19957;-60
2022/04/01 01:04:10;;;;;;;;;;;11.50;90.30;;;;;;4978708;28;20259;-61
2022/04/01 01:06:40;;;;;;;;;;;11.50;90.50;;;;;;4978904;28;20284;-63
2022/04/01 01:09:06;;;;;;;;;;;11.50;90.60;;;;;;4978407;28;19914;-62
2022/04/01 01:11:32;;;;;;;;;;;11.50;90.70;;;;;;4978331;28;19956;-61
2022/04/01 01:13:58;;;;;;;;;;;11.50;90.50;;;;;;4978524;28;20326;-61
2022/04/01 01:16:23;;;;;;;;;;;11.50;90.50;;;;;;4977092;28;19910;-61
2022/04/01 01:19:03;;;;;;;;;;;11.50;90.30;;;;;;4976380;28;19941;-60
2022/04/01 01:21:30;;;;;;;;;;;11.50;90.60;;;;;;4976881;28;19910;-60
2022/04/01 01:24:00;;;;;;;;;;;11.60;90.70;;;;;;4976697;28;19914;-62
2022/04/01 01:26:26;;;;;;;;;;;11.50;90.40;;;;;;4976522;28;20394;-60
2022/04/01 01:28:54;;;;;;;;;;;11.20;90.60;;;;;;4976628;28;19917;-60
2022/04/01 01:31:20;;;;;;;;;;;11.30;91.00;;;;;;4976601;28;20017;-60
2022/04/01 01:33:46;;;;;;;;;;;11.40;91.00;;;;;;4975973;28;20004;-60
2022/04/01 01:36:12;;;;;;;;;;;11.50;90.80;;;;;;4976486;28;20362;-60
2022/04/01 01:38:38;;;;;;;;;;;11.40;90.60;;;;;;4983567;28;19928;-60
2022/04/01 01:41:03;;;;;;;;;;;11.40;90.60;;;;;;4977384;28;19914;-60
2022/04/01 01:43:29;;;;;;;;;;;11.50;90.80;;;;;;4976146;28;20293;-60
2022/04/01 01:45:55;;;;;;;;;;;11.50;90.80;;;;;;4976081;28;19910;-60
2022/04/01 01:48:22;;;;;;;;;;;11.50;90.80;;;;;;4975772;28;19921;-60
2022/04/01 01:56:17;;;;;;;;;;;11.50;90.40;;;;;;4975906;28;20428;-60
2022/04/01 01:58:43;;;;;;;;;;;11.50;90.60;;;;;;4975674;28;19924;-61
2022/04/01 02:01:09;;;;;;;;;;;11.50;90.30;;;;;;4975551;28;19911;-64
2022/04/01 02:03:34;;;;;;;;;;;11.50;89.70;;;;;;4975847;28;20255;-60
2022/04/01 02:06:00;;;;;;;;;;;11.60;89.50;;;;;;4976388;28;19972;-60
2022/04/01 02:08:25;;;;;;;;;;;11.60;88.90;;;;;;4975885;28;20009;-60
2022/04/01 02:10:51;;;;;;;;;;;11.50;88.30;;;;;;4975496;28;19916;-60
2022/04/01 02:13:17;;;;;;;;;;;11.50;89.20;;;;;;4975713;28;20362;-61
2022/04/01 02:15:43;;;;;;;;;;;11.50;89.70;;;;;;4975687;28;20280;-60
2022/04/01 02:18:10;;;;;;;;;;;11.40;89.70;;;;;;4975823;28;19922;-60
2022/04/01 02:20:36;;;;;;;;;;;11.40;89.70;;;;;;4975765;28;19921;-60
2022/04/01 02:23:03;;;;;;;;;;;11.40;89.90;;;;;;4975546;28;19914;-60
2022/04/01 02:25:30;;;;;;;;;;;11.40;90.00;;;;;;4975271;28;19965;-60
2022/04/01 02:27:56;;;;;;;;;;;11.40;90.00;;;;;;4975086;28;20370;-60
2022/04/01 02:30:22;;;;;;;;;;;11.30;90.00;;;;;;4974792;28;20001;-60
2022/04/01 02:32:48;;;;;;;;;;;11.30;90.40;;;;;;4975266;28;19918;-60
2022/04/01 02:35:13;;;;;;;;;;;11.30;90.20;;;;;;4975210;28;19914;-60
2022/04/01 02:37:40;;;;;;;;;;;11.30;90.30;;;;;;4975453;28;20403;-60
2022/04/01 02:40:06;;;;;;;;;;;11.30;90.10;;;;;;4975145;28;20374;-60
2022/04/01 02:42:32;;;;;;;;;;;11.30;90.00;;;;;;4975136;28;20326;-60
2022/04/01 02:44:57;;;;;;;;;;;11.30;90.10;;;;;;4975259;28;19910;-61
2022/04/01 02:47:24;;;;;;;;;;;11.40;89.50;;;;;;4974953;28;19910;-60
2022/04/01 02:49:50;;;;;;;;;;;11.40;88.50;;;;;;4975248;28;19957;-60
2022/04/01 02:52:16;;;;;;;;;;;11.40;87.60;;;;;;4975242;28;19945;-60
2022/04/01 02:54:42;;;;;;;;;;;11.30;88.00;;;;;;4974998;28;19917;-60
2022/04/01 02:57:09;;;;;;;;;;;11.20;88.60;;;;;;4974947;28;19911;-60
2022/04/01 02:59:35;;;;;;;;;;;11.30;88.70;;;;;;4974877;28;19915;-60
2022/04/01 03:02:00;;;;;;;;;;;11.30;88.30;;;;;;4975346;28;20406;-60
2022/04/01 03:04:26;;;;;;;;;;;11.30;88.40;;;;;;4975041;28;20009;-60
2022/04/01 03:06:51;;;;;;;;;;;11.20;88.40;;;;;;4975065;28;20004;-60
2022/04/01 03:09:17;;;;;;;;;;;11.20;88.50;;;;;;4975017;28;19910;-60
2022/04/01 03:11:43;;;;;;;;;;;11.20;88.70;;;;;;4975073;28;19917;-60
2022/04/01 03:14:09;;;;;;;;;;;11.20;89.10;;;;;;4974721;28;19918;-60
2022/04/01 03:16:35;;;;;;;;;;;11.20;88.70;;;;;;4974926;28;19917;-60
2022/04/01 03:19:01;;;;;;;;;;;11.20;88.70;;;;;;4975113;28;20020;-60
2022/04/01 03:21:28;;;;;;;;;;;11.20;88.80;;;;;;4977637;28;19953;-60
2022/04/01 03:23:54;;;;;;;;;;;11.20;89.00;;;;;;4985218;28;19956;-61
2022/04/01 03:26:23;;;;;;;;;;;11.30;88.20;;;;;;4975246;28;20374;-60
2022/04/01 03:28:48;;;;;;;;;;;11.20;87.20;;;;;;4976978;28;19917;-62
2022/04/01 03:31:14;;;;;;;;;;;11.20;88.00;;;;;;4977874;28;19910;-64
2022/04/01 03:33:43;;;;;;;;;;;11.20;88.10;;;;;;4976212;28;19923;-61
2022/04/01 03:36:10;;;;;;;;;;;11.20;87.90;;;;;;4975189;28;19916;-60
2022/04/01 03:38:36;;;;;;;;;;;11.20;87.40;;;;;;4976313;28;19927;-60
2022/04/01 03:41:02;;;;;;;;;;;11.20;87.90;;;;;;4977556;28;20019;-60
2022/04/01 03:43:29;;;;;;;;;;;11.10;88.90;;;;;;4978478;28;19911;-60
2022/04/01 03:45:55;;;;;;;;;;;11.10;88.80;;;;;;4978271;28;19911;-60
2022/04/01 03:48:35;;;;;;;;;;;11.10;89.20;;;;;;4978299;28;19943;-60
2022/04/01 03:51:01;;;;;;;;;;;11.10;88.70;;;;;;4978444;28;20359;-61
2022/04/01 03:53:28;;;;;;;;;;;11.10;89.20;;;;;;4978235;28;19968;-60
2022/04/01 03:55:57;;;;;;;;;;;11.10;89.00;;;;;;4978154;28;20243;-60
2022/04/01 03:58:30;;;;;;;;;;;11.10;89.70;;;;;;4978011;28;19969;-60
2022/04/01 04:01:01;;;;;;;;;;;11.10;90.00;;;;;;4992985;28;20285;-60
2022/04/01 04:03:27;;;;;;;;;;;11.10;89.00;;;;;;4977923;28;19953;-60
2022/04/01 04:05:53;;;;;;;;;;;11.10;89.50;;;;;;4977858;28;20425;-60
2022/04/01 04:08:20;;;;;;;;;;;11.10;88.80;;;;;;4977626;28;19910;-60
2022/04/01 04:10:49;;;;;;;;;;;11.10;89.50;;;;;;4978006;28;19910;-60
2022/04/01 04:13:16;;;;;;;;;;;11.00;90.10;;;;;;4977767;28;19917;-67
2022/04/01 04:15:58;;;;;;;;;;;11.00;90.00;;;;;;4977868;28;19911;-60
2022/04/01 04:18:25;;;;;;;;;;;11.10;90.10;;;;;;4977673;28;20381;-61
2022/04/01 04:20:58;;;;;;;;;;;11.10;90.00;;;;;;4977486;28;19914;-60
2022/04/01 04:23:24;;;;;;;;;;;11.10;89.80;;;;;;4978024;28;19910;-60
2022/04/01 04:26:01;;;;;;;;;;;11.10;90.10;;;;;;4977427;28;20009;-60
2022/04/01 04:28:27;;;;;;;;;;;11.20;90.10;;;;;;4977507;28;20030;-61
2022/04/01 04:30:53;;;;;;;;;;;11.20;90.10;;;;;;4977599;28;19918;-60
2022/04/01 04:33:21;;;;;;;;;;;11.30;90.00;;;;;;4977418;28;20413;-61
2022/04/01 04:35:48;;;;;;;;;;;11.30;90.00;;;;;;4977451;28;19910;-60
2022/04/01 04:38:14;;;;;;;;;;;11.30;89.20;;;;;;4979271;28;20297;-60
2022/04/01 04:40:41;;;;;;;;;;;11.20;88.90;;;;;;4980462;28;20008;-60
2022/04/01 04:43:07;;;;;;;;;;;11.30;89.50;;;;;;4978078;28;19932;-60
2022/04/01 04:45:33;;;;;;;;;;;11.30;88.50;;;;;;4977299;28;20367;-60
2022/04/01 04:47:59;;;;;;;;;;;11.40;88.20;;;;;;4977213;28;20278;-61
2022/04/01 04:50:24;;;;;;;;;;;11.40;88.00;;;;;;4976992;28;20350;-60
2022/04/01 04:52:53;;;;;;;;;;;11.40;87.90;;;;;;4976665;28;19911;-60
2022/04/01 04:55:19;;;;;;;;;;;11.50;87.80;;;;;;4975731;28;19938;-60
2022/04/01 04:57:46;;;;;;;;;;;11.40;88.40;;;;;;4976992;28;19968;-60
2022/04/01 05:00:13;;;;;;;;;;;11.30;88.70;;;;;;4976859;28;20274;-60
2022/04/01 05:02:41;;;;;;;;;;;11.20;89.50;;;;;;4976657;28;19910;-60
2022/04/01 05:05:12;;;;;;;;;;;11.20;89.50;;;;;;4977129;28;19910;-60
2022/04/01 05:07:38;;;;;;;;;;;11.10;89.80;;;;;;4977702;28;20322;-60
2022/04/01 05:10:24;;;;;;;;;;;11.10;89.40;;;;;;4978526;28;19914;-60
2022/04/01 05:12:57;;;;;;;;;;;11.20;89.60;;;;;;4975944;28;19917;-60
2022/04/01 05:15:30;;;;;;;;;;;11.20;89.90;;;;;;4977218;28;19910;-60
2022/04/01 05:18:08;;;;;;;;;;;11.30;90.20;;;;;;4976589;28;20374;-60
2022/04/01 05:20:36;;;;;;;;;;;11.40;90.10;;;;;;4976977;28;20063;-60
2022/04/01 05:23:15;;;;;;;;;;;11.30;90.10;;;;;;4986246;28;19911;-60
2022/04/01 05:25:45;;;;;;;;;;;11.30;90.00;;;;;;4983532;28;19914;-60
2022/04/01 05:28:20;;;;;;;;;;;11.20;90.00;;;;;;4983175;28;20317;-60
2022/04/01 05:30:46;;;;;;;;;;;11.20;90.30;;;;;;4976496;28;19910;-60
2022/04/01 05:33:18;;;;;;;;;;;11.20;90.50;;;;;;4976841;28;20013;-61
2022/04/01 05:35:51;;;;;;;;;;;11.20;90.60;;;;;;4976170;28;19910;-61
2022/04/01 05:38:19;;;;;;;;;;;11.20;90.50;;;;;;4976509;28;19922;-60
2022/04/01 05:40:45;;;;;;;;;;;11.20;90.50;;;;;;4976678;28;19918;-60
2022/04/01 05:43:12;;;;;;;;;;;11.30;90.60;;;;;;4976111;28;19910;-60
2022/04/01 05:45:38;;;;;;;;;;;11.20;90.40;;;;;;4976821;28;20005;-62
2022/04/01 05:48:08;;;;;;;;;;;11.20;90.40;;;;;;4976041;28;19976;-61
2022/04/01 05:50:34;;;;;;;;;;;11.30;90.30;;;;;;4975949;28;19917;-61
2022/04/01 05:53:01;;;;;;;;;;;11.30;90.60;;;;;;4976560;28;19910;-61
2022/04/01 05:55:26;;;;;;;;;;;11.40;90.70;;;;;;4990193;28;19918;-61
2022/04/01 05:57:55;;;;;;;;;;;11.40;90.60;;;;;;4979630;28;20037;-60
2022/04/01 06:00:22;;;;;;;;;;;11.40;90.60;;;;;;4976067;28;20294;-61
2022/04/01 06:02:56;;;;;;;;;;;11.50;90.30;;;;;;4976474;28;19910;-61
2022/04/01 06:05:29;;;;;;;;;;;11.60;88.70;;;;;;4975305;28;20386;-61
2022/04/01 06:08:01;;;;;;;;;;;11.60;89.50;;;;;;4977002;28;20333;-62
2022/04/01 06:10:33;;;;;;;;;;;11.60;89.80;;;;;;4976297;28;19914;-61
2022/04/01 06:13:04;;;;;;;;;;;11.70;89.70;;;;;;4976715;28;19911;-60
2022/04/01 06:15:33;;;;;;;;;;;11.80;89.50;;;;;;4975941;28;20057;-60
2022/04/01 06:18:01;;;;;;;;;;;11.80;88.80;;;;;;4977050;28;19918;-61
2022/04/01 06:20:27;;;;;;;;;;;11.80;89.20;;;;;;4976484;28;19914;-60
2022/04/01 06:23:23;;;;;;;;;;;11.90;88.80;;;;;;4975927;28;19917;-62
2022/04/01 06:25:54;;;;;;;;;;;11.90;88.50;;;;;;4979811;28;19910;-60
2022/04/01 06:28:24;;;;;;;;;;;12.10;87.20;;;;;;4976115;28;19925;-60
2022/04/01 06:30:50;;;;;;;;;;;12.20;86.10;;;;;;4976424;28;19911;-61
2022/04/01 06:33:21;;;;;;;;;;;12.20;85.80;;;;;;4975820;28;20293;-61
2022/04/01 06:35:47;;;;;;;;;;;12.20;85.40;;;;;;4976027;28;20030;-60
2022/04/01 06:38:17;;;;;;;;;;;12.20;85.10;;;;;;4975579;28;19914;-62
2022/04/01 06:40:43;;;;;;;;;;;12.10;85.50;;;;;;4975886;28;19910;-62
2022/04/01 06:43:08;;;;;;;;;;;12.10;85.80;;;;;;4986577;28;19917;-62
2022/04/01 06:45:34;;;;;;;;;;;12.00;86.50;;;;;;4994987;28;19921;-60
2022/04/01 06:48:00;;;;;;;;;;;11.90;87.00;;;;;;4994137;28;20028;-60
2022/04/01 06:50:25;;;;;;;;;;;11.80;87.50;;;;;;4993729;28;19910;-62
2022/04/01 06:52:51;;;;;;;;;;;11.80;87.50;;;;;;4994088;28;19910;-59
2022/04/01 06:55:16;;;;;;;;;;;11.90;87.20;;;;;;4994089;28;20374;-61
2022/04/01 06:57:42;;;;;;;;;;;11.80;87.80;;;;;;4994139;28;19918;-64
2022/04/01 07:00:09;;;;;;;;;;;11.60;88.60;;;;;;4993944;28;19910;-60
2022/04/01 07:02:35;;;;;;;;;;;11.60;88.60;;;;;;4994197;28;20297;-61
2022/04/01 07:05:01;;;;;;;;;;;11.60;88.80;;;;;;4996700;28;19977;-65
2022/04/01 07:07:26;;;;;;;;;;;11.60;89.00;;;;;;4996251;28;20011;-65
2022/04/01 07:09:52;;;;;;;;;;;11.60;89.30;;;;;;5002157;28;19932;-62
2022/04/01 07:12:18;;;;;;;;;;;11.60;88.70;;;;;;4997693;28;19919;-62
2022/04/01 07:14:43;;;;;;;;;;;11.60;88.00;;;;;;4997014;28;19916;-64
2022/04/01 07:17:09;;;;;;;;;;;11.60;88.50;;;;;;4999117;28;20353;-62
2022/04/01 07:19:35;;;;;;;;;;;11.60;89.20;;;;;;4998987;28;20361;-60
2022/04/01 07:22:00;;;;;;;;;;;11.70;89.80;;;;;;4997577;28;19910;-60
2022/04/01 07:24:26;;;;;;;;;;;11.70;89.80;;;;;;4997563;28;20346;-61
2022/04/01 07:26:52;;;;;;;;;;;11.70;89.90;;;;;;4997728;28;19964;-59
2022/04/01 07:29:18;;;;;;;;;;;11.70;89.30;;;;;;4997995;28;19925;-58
2022/04/01 07:34:32;;;;;;;;;;;11.70;89.50;;;;;;4998593;28;20336;-58
2022/04/01 07:36:57;;;;;;;;;;;11.80;89.40;;;;;;4998768;28;19918;-57
2022/04/01 07:39:23;;;;;;;;;;;11.80;89.80;;;;;;4993478;28;20392;-60
2022/04/01 07:41:48;;;;;;;;;;;11.80;90.00;;;;;;4996039;28;20290;-69
2022/04/01 07:44:14;;;;;;;;;;;11.70;89.50;;;;;;4996129;28;19913;-61
2022/04/01 07:46:40;;;;;;;;;;;11.70;89.80;;;;;;4996405;28;19917;-57
2022/04/01 07:49:05;;;;;;;;;;;11.80;90.30;;;;;;4996076;28;20333;-58
2022/04/01 07:51:31;;;;;;;;;;;11.80;90.40;;;;;;4995919;28;19996;-57
2022/04/01 07:53:56;;;;;;;;;;;11.80;90.10;;;;;;4996762;28;19945;-57
2022/04/01 07:56:30;;;;;;;;;;;11.80;89.70;;;;;;4997794;28;20251;-57
2022/04/01 07:58:55;;;;;;;;;;;11.80;89.60;;;;;;4997639;28;19918;-57
2022/04/01 08:01:22;;;;;;;;;;;11.90;90.10;;;;;;4997959;28;19921;-57
2022/04/01 08:03:48;;;;;;;;;;;11.90;90.00;;;;;;4998222;28;19914;-58
2022/04/01 08:06:14;;;;;;;;;;;12.00;89.70;;;;;;4998046;28;19914;-57
2022/04/01 08:08:39;;;;;;;;;;;12.00;89.40;;;;;;4999448;28;19917;-59
2022/04/01 08:11:06;;;;;;;;;;;11.90;89.10;;;;;;4998941;28;20012;-58
2022/04/01 08:13:32;;;;;;;;;;;11.90;88.50;;;;;;4997794;28;19921;-57
2022/04/01 08:15:58;;;;;;;;;;;11.90;88.60;;;;;;4997543;28;19910;-57
2022/04/01 08:18:24;;;;;;;;;;;12.00;90.00;;;;;;4999226;28;19941;-57
2022/04/01 08:20:49;;;;;;;;;;;12.00;89.40;;;;;;5006253;28;19917;-66
2022/04/01 08:23:15;;;;;;;;;;;12.10;89.20;;;;;;5005739;28;19941;-56
2022/04/01 08:25:40;;;;;;;;;;;12.10;89.60;;;;;;4998980;28;19916;-56
2022/04/01 08:28:06;;;;;;;;;;;12.20;89.20;;;;;;4997491;28;20285;-58
2022/04/01 08:30:34;;;;;;;;;;;12.10;89.60;;;;;;4997256;28;20346;-58
2022/04/01 08:33:00;;;;;;;;;;;12.20;89.10;;;;;;4996906;28;19917;-58
2022/04/01 08:35:26;;;;;;;;;;;12.20;89.10;;;;;;4997242;28;20377;-57
2022/04/01 08:37:54;;;;;;;;;;;12.20;89.20;;;;;;4996513;28;20031;-60
2022/04/01 08:40:20;;;;;;;;;;;12.30;89.10;;;;;;4995976;28;20365;-60
2022/04/01 08:42:47;;;;;;;;;;;12.30;89.50;;;;;;4997718;28;19917;-58
2022/04/01 08:45:15;;;;;;;;;;;12.30;89.80;;;;;;4998393;28;19910;-59
2022/04/01 08:47:40;;;;;;;;;;;12.40;89.40;;;;;;4998420;28;19946;-58
2022/04/01 08:50:07;;;;;;;;;;;12.50;89.60;;;;;;4997616;28;20013;-58
2022/04/01 08:52:33;;;;;;;;;;;12.60;88.80;;;;;;4996759;28;20009;-58
2022/04/01 08:55:05;;;;;;;;;;;12.60;88.00;;;;;;4995505;28;19909;-56
2022/04/01 08:57:37;;;;;;;;;;;12.40;86.80;;;;;;4996289;28;19909;-57
2022/04/01 09:00:23;;;;;;;;;;;12.40;86.70;;;;;;4996361;28;20445;-57
2022/04/01 09:02:57;;;;;;;;;;;12.60;86.80;;;;;;5000817;28;19910;-56
2022/04/01 09:05:22;;;;;;;;;;;12.60;87.30;;;;;;5000806;28;19917;-56
2022/04/01 09:07:49;;;;;;;;;;;12.60;87.30;;;;;;4996376;28;19910;-57
2022/04/01 09:10:15;;;;;;;;;;;12.70;87.40;;;;;;4996447;28;19964;-56
2022/04/01 09:12:51;;;;;;;;;;;12.70;87.00;;;;;;4996095;28;19914;-56
2022/04/01 09:15:18;;;;;;;;;;;12.70;86.50;;;;;;4995938;28;20375;-56
2022/04/01 09:17:45;;;;;;;;;;;12.70;88.50;;;;;;4996147;28;19984;-56
2022/04/01 09:20:11;;;;;;;;;;;12.80;88.50;;;;;;4996066;28;20022;-56
2022/04/01 09:22:37;;;;;;;;;;;12.70;88.50;;;;;;4996039;28;19910;-57
2022/04/01 09:25:07;;;;;;;;;;;12.70;88.00;;;;;;4996073;28;19948;-56
2022/04/01 09:27:36;;;;;;;;;;;12.60;86.20;;;;;;4995712;28;20369;-57
2022/04/01 09:30:03;;;;;;;;;;;12.60;86.50;;;;;;4995724;28;20001;-56
2022/04/01 09:32:48;;;;;;;;;;;12.60;86.40;;;;;;4995707;28;20474;-56
2022/04/01 09:35:15;;;;;;;;;;;12.70;87.00;;;;;;4995860;28;19914;-56
2022/04/01 09:37:45;;;;;;;;;;;12.70;86.50;;;;;;4995478;28;19928;-56
2022/04/01 09:40:13;;;;;;;;;;;12.80;86.40;;;;;;4995297;28;20384;-57
2022/04/01 09:42:38;;;;;;;;;;;12.90;86.30;;;;;;4995477;28;20021;-57
2022/04/01 09:45:04;;;;;;;;;;;12.80;87.30;;;;;;4995303;28;19922;-57
2022/04/01 09:47:37;;;;;;;;;;;12.70;86.80;;;;;;4995457;28;19910;-58
2022/04/01 09:50:09;;;;;;;;;;;12.70;87.50;;;;;;4995567;28;20384;-62
2022/04/01 09:52:36;;;;;;;;;;;12.70;86.20;;;;;;4995428;28;19910;-60
2022/04/01 09:55:02;;;;;;;;;;;12.80;86.20;;;;;;4995636;28;19945;-59
2022/04/01 09:57:28;;;;;;;;;;;12.90;86.70;;;;;;4995336;28;19909;-59
2022/04/01 09:59:54;;;;;;;;;;;12.90;85.60;;;;;;4995192;28;19963;-57
2022/04/01 10:02:20;;;;;;;;;;;12.80;86.70;;;;;;4995460;28;19913;-57
2022/04/01 10:04:46;;;;;;;;;;;12.80;87.60;;;;;;4995204;28;19960;-56
2022/04/01 10:07:12;;;;;;;;;;;12.80;86.10;;;;;;4995499;28;20277;-56
2022/04/01 10:09:38;;;;;;;;;;;12.80;85.20;;;;;;4994855;28;20374;-61
2022/04/01 10:12:07;;;;;;;;;;;13.00;85.70;;;;;;4995747;28;19917;-57
2022/04/01 10:14:35;;;;;;;;;;;13.20;86.40;;;;;;4996339;28;20024;-56
2022/04/01 10:17:01;;;;;;;;;;;13.30;85.20;;;;;;4995720;28;20278;-64
2022/04/01 10:19:31;;;;;;;;;;;13.30;85.10;;;;;;4995338;28;19922;-59
2022/04/01 10:21:56;;;;;;;;;;;13.40;84.60;;;;;;4995351;28;20000;-57
2022/04/01 10:24:34;;;;;;;;;;;13.50;84.00;;;;;;4995214;28;20012;-60
2022/04/01 10:27:23;;;;;;;;;;;13.40;83.20;;;;;;4996074;28;20350;-57
2022/04/01 10:29:49;;;;;;;;;;;13.40;83.70;;;;;;4997663;28;19956;-59
2022/04/01 10:32:21;;;;;;;;;;;13.60;83.40;;;;;;4995618;28;19910;-57
2022/04/01 10:34:47;;;;;;;;;;;13.70;83.20;;;;;;4996677;28;20420;-57
2022/04/01 10:37:14;;;;;;;;;;;13.60;83.40;;;;;;4994427;28;20017;-59
2022/04/01 10:39:59;;;;;;;;;;;13.60;84.00;;;;;;4994710;28;19929;-57
2022/04/01 10:42:25;;;;;;;;;;;13.70;85.00;;;;;;4994949;28;20004;-57
2022/04/01 10:44:52;;;;;;;;;;;13.80;85.60;;;;;;4995848;28;20361;-63
2022/04/01 10:47:20;;;;;;;;;;;13.80;83.80;;;;;;4999403;28;19917;-57
2022/04/01 10:52:30;;;;;;;;;;;14.00;82.30;;;;;;4999340;28;19960;-57
2022/04/01 10:55:06;;;;;;;;;;;14.10;80.90;;;;;;5009138;28;19910;-59
2022/04/01 10:57:34;;;;;;;;;;;14.10;81.80;;;;;;5004074;28;20266;-64
2022/04/01 11:00:08;;;;;;;;;;;14.20;82.40;;;;;;4998989;28;20361;-58
2022/04/01 11:02:34;;;;;;;;;;;14.20;82.20;;;;;;4996597;28;20041;-59
2022/04/01 11:05:00;;;;;;;;;;;14.30;82.10;;;;;;4996048;28;19946;-58
2022/04/01 11:07:25;;;;;;;;;;;14.30;82.90;;;;;;4996255;28;20417;-60
2022/04/01 11:09:52;;;;;;;;;;;14.40;82.90;;;;;;4999993;28;19953;-60
2022/04/01 11:12:18;;;;;;;;;;;14.50;82.80;;;;;;5000497;28;19917;-59
2022/04/01 11:14:53;;;;;;;;;;;14.40;79.10;;;;;;4999513;28;19964;-63
2022/04/01 11:17:26;;;;;;;;;;;14.30;79.60;;;;;;4995314;28;19910;-59
2022/04/01 11:20:05;;;;;;;;;;;14.30;80.70;;;;;;4994942;28;19937;-59
2022/04/01 11:22:35;;;;;;;;;;;14.50;79.40;;;;;;4995430;28;19956;-61
2022/04/01 11:25:00;;;;;;;;;;;14.60;78.70;;;;;;4995808;28;19909;-58
2022/04/01 11:27:26;;;;;;;;;;;14.70;80.60;;;;;;4995552;28;19964;-57
2022/04/01 11:30:08;;;;;;;;;;;14.70;79.20;;;;;;4995914;28;19910;-57
2022/04/01 11:32:35;;;;;;;;;;;14.70;78.50;;;;;;4995342;28;20410;-60
2022/04/01 11:35:01;;;;;;;;;;;14.60;78.40;;;;;;4996198;28;19921;-58
2022/04/01 11:37:26;;;;;;;;;;;14.80;81.40;;;;;;4995154;28;20328;-60
2022/04/01 11:39:52;;;;;;;;;;;15.00;80.20;;;;;;4994677;28;19913;-58
2022/04/01 11:42:17;;;;;;;;;;;15.00;78.20;;;;;;4996255;28;19917;-58
2022/04/01 11:44:54;;;;;;;;;;;15.00;77.80;;;;;;4997424;28;19964;-58
2022/04/01 11:47:32;;;;;;;;;;;15.00;79.00;;;;;;4994524;28;19921;-57
2022/04/01 11:50:06;;;;;;;;;;;14.80;76.90;;;;;;4995827;28;19910;-58
2022/04/01 11:52:35;;;;;;;;;;;14.90;78.00;;;;;;4997394;28;19917;-57
2022/04/01 11:55:01;;;;;;;;;;;15.10;78.20;;;;;;4996905;28;19909;-59
2022/04/01 11:57:29;;;;;;;;;;;15.10;76.60;;;;;;4996625;28;20004;-60
2022/04/01 11:59:59;;;;;;;;;;;15.20;77.90;;;;;;4995990;28;19914;-58
2022/04/01 12:02:24;;;;;;;;;;;15.10;75.20;;;;;;4994313;28;19917;-59
2022/04/01 12:04:50;;;;;;;;;;;14.90;77.70;;;;;;4995285;28;20354;-56
2022/04/01 12:10:00;;;;;;;;;;;15.20;75.80;;;;;;5002919;28;19976;-57
2022/04/01 12:12:26;;;;;;;;;;;15.30;75.80;;;;;;5000728;28;20362;-56
2022/04/01 12:14:56;;;;;;;;;;;15.60;74.00;;;;;;4998904;28;20020;-57
2022/04/01 12:17:22;;;;;;;;;;;15.60;73.90;;;;;;4999935;28;19913;-56
2022/04/01 12:19:48;;;;;;;;;;;15.60;75.50;;;;;;4999462;28;20385;-56
2022/04/01 12:22:14;;;;;;;;;;;15.80;73.20;;;;;;4999270;28;19910;-57
2022/04/01 12:24:39;;;;;;;;;;;15.60;70.80;;;;;;4998036;28;20357;-58
2022/04/01 12:27:06;;;;;;;;;;;15.50;72.40;;;;;;4998256;28;19922;-57
2022/04/01 12:29:32;;;;;;;;;;;15.40;73.40;;;;;;4997843;28;19910;-56
2022/04/01 12:32:03;;;;;;;;;;;15.10;73.30;;;;;;4997896;28;19917;-55
2022/04/01 12:34:28;;;;;;;;;;;15.00;72.60;;;;;;4997720;28;19922;-56
2022/04/01 12:37:02;;;;;;;;;;;15.00;73.60;;;;;;4998203;28;19917;-55
2022/04/01 12:39:31;;;;;;;;;;;14.90;73.20;;;;;;4998178;28;19953;-56
2022/04/01 12:41:57;;;;;;;;;;;15.10;71.00;;;;;;4997979;28;20271;-57
2022/04/01 12:44:25;;;;;;;;;;;15.20;71.00;;;;;;4998693;28;19980;-56
2022/04/01 12:46:51;;;;;;;;;;;15.10;70.60;;;;;;4999375;28;19910;-57
2022/04/01 12:49:17;;;;;;;;;;;15.20;71.40;;;;;;4996519;28;20074;-57
2022/04/01 12:51:49;;;;;;;;;;;15.30;73.20;;;;;;4997756;28;19945;-58
2022/04/01 12:54:28;;;;;;;;;;;15.50;70.90;;;;;;4999205;28;19913;-58
2022/04/01 12:56:54;;;;;;;;;;;15.40;68.60;;;;;;4998289;28;19945;-57
2022/04/01 12:59:24;;;;;;;;;;;15.40;67.90;;;;;;4997400;28;19929;-59
2022/04/01 13:01:56;;;;;;;;;;;15.40;68.30;;;;;;5005982;28;19972;-58
2022/04/01 13:04:22;;;;;;;;;;;15.20;65.70;;;;;;4991474;28;19910;-59
2022/04/01 13:07:06;;;;;;;;;;;15.00;66.80;;;;;;4978918;28;19957;-58
2022/04/01 13:09:32;;;;;;;;;;;15.00;68.00;;;;;;4975744;28;19918;-58
2022/04/01 13:11:58;;;;;;;;;;;15.10;67.80;;;;;;4976075;28;20028;-58
2022/04/01 13:14:27;;;;;;;;;;;15.30;67.40;;;;;;4975026;28;19913;-57
2022/04/01 13:16:54;;;;;;;;;;;15.60;66.00;;;;;;4975119;28;19961;-57
2022/04/01 13:19:19;;;;;;;;;;;15.80;66.30;;;;;;4975430;28;20048;-57
2022/04/01 13:21:45;;;;;;;;;;;15.80;61.60;;;;;;4977123;28;19914;-57
2022/04/01 13:24:11;;;;;;;;;;;15.80;64.20;;;;;;4977594;28;19910;-62
2022/04/01 13:26:36;;;;;;;;;;;15.90;61.70;;;;;;4975285;28;19914;-59
2022/04/01 13:29:02;;;;;;;;;;;15.80;62.20;;;;;;4975237;28;19920;-59
2022/04/01 13:31:28;;;;;;;;;;;15.90;60.40;;;;;;4978416;28;19909;-60
2022/04/01 13:33:54;;;;;;;;;;;15.80;59.40;;;;;;4993992;28;20002;-58
2022/04/01 13:36:20;;;;;;;;;;;15.80;59.90;;;;;;4993906;28;19921;-62
2022/04/01 13:38:45;;;;;;;;;;;15.90;59.00;;;;;;4991525;28;19930;-59
2022/04/01 13:41:11;;;;;;;;;;;15.70;57.10;;;;;;4993595;28;19914;-60
2022/04/01 13:43:37;;;;;;;;;;;15.60;58.30;;;;;;4989533;28;19918;-58
2022/04/01 13:46:03;;;;;;;;;;;15.60;60.00;;;;;;4993009;28;19921;-61
2022/04/01 13:48:28;;;;;;;;;;;15.40;55.90;;;;;;4994517;28;20255;-59
2022/04/01 13:50:55;;;;;;;;;;;15.30;57.50;;;;;;4995931;28;20281;-58
2022/04/01 13:53:20;;;;;;;;;;;15.40;57.10;;;;;;4995754;28;19913;-61
2022/04/01 13:55:46;;;;;;;;;;;15.40;56.40;;;;;;4994950;28;19937;-58
2022/04/01 13:58:12;;;;;;;;;;;15.40;55.50;;;;;;4995213;28;19914;-58
2022/04/01 14:00:39;;;;;;;;;;;15.50;57.90;;;;;;4995155;28;20420;-60
2022/04/01 14:03:04;;;;;;;;;;;15.50;55.90;;;;;;4995070;28;20358;-57
2022/04/01 14:05:31;;;;;;;;;;;15.60;56.40;;;;;;4994807;28;19960;-57
2022/04/01 14:07:57;;;;;;;;;;;15.70;57.40;;;;;;4994958;28;19920;-58
2022/04/01 14:10:23;;;;;;;;;;;15.80;58.70;;;;;;4995096;28;19917;-61
2022/04/01 14:12:49;;;;;;;;;;;15.50;58.10;;;;;;4995413;28;19910;-63
2022/04/01 14:15:14;;;;;;;;;;;15.50;58.10;;;;;;4995990;28;19909;-63
2022/04/01 14:17:40;;;;;;;;;;;15.50;58.20;;;;;;4995480;28;19971;-57
2022/04/01 14:20:05;;;;;;;;;;;15.40;57.90;;;;;;4995375;28;19920;-57
2022/04/01 14:22:31;;;;;;;;;;;15.30;56.40;;;;;;4994910;28;19917;-56
2022/04/01 14:24:57;;;;;;;;;;;15.40;57.00;;;;;;4994495;28;19914;-60
2022/04/01 14:27:22;;;;;;;;;;;15.40;57.50;;;;;;4995028;28;19920;-58
2022/04/01 14:32:50;;;;;;;;;;;15.30;57.90;;;;;;5012389;28;19928;-64
2022/04/01 14:35:15;;;;;;;;;;;15.10;58.00;;;;;;4999307;28;19910;-59